Time;durP1;ratioP1;P1;durP2;ratioP2;P2;SDS_P1;SDS_P2;PMS_P1;PMS_P2;Temp;Humidity;BMP_temperature;BMP_pressure;BME280_temperature;BME280_humidity;BME280_pressure;Samples;Min_cycle;Max_cycle;Signal;HPM_P1;HPM_P2
2022/12/06 00:01:34;;;;;;;28.48;13.77;;;;;;;;;;5033579;28;20022;-57
2022/12/06 00:04:02;;;;;;;29.10;14.43;;;;;;;;;;5047696;28;20474;-56
2022/12/06 00:06:29;;;;;;;29.23;13.63;;;;;;;;;;5040430;28;20092;-57
2022/12/06 00:08:56;;;;;;;26.20;13.25;;;;;;;;;;5053808;28;20028;-57
2022/12/06 00:11:26;;;;;;;26.30;13.63;;;;;;;;;;5052031;28;20075;-57
2022/12/06 00:13:53;;;;;;;32.03;14.65;;;;;;;;;;5053548;28;20029;-57
2022/12/06 00:16:19;;;;;;;29.65;14.95;;;;;;;;;;5053998;28;20043;-58
2022/12/06 00:18:45;;;;;;;25.08;12.65;;;;;;;;;;5053770;28;20025;-56
2022/12/06 00:21:23;;;;;;;29.92;13.25;;;128.80;2252.80;;;;;;5053687;28;20811;-58
2022/12/06 00:23:54;;;;;;;29.80;13.68;;;128.40;2252.80;;;;;;5053636;28;20644;-57
2022/12/06 00:26:21;;;;;;;27.30;13.70;;;128.30;2252.80;;;;;;5053329;28;20076;-57
2022/12/06 00:28:50;;;;;;;27.40;13.82;;;128.20;2252.80;;;;;;5054250;28;20025;-57
2022/12/06 00:31:18;;;;;;;28.90;13.52;;;128.10;2252.80;;;;;;5041373;28;20075;-57
2022/12/06 00:33:43;;;;;;;26.75;13.00;;;128.00;2252.80;;;;;;5033796;28;20049;-58
2022/12/06 00:36:14;;;;;;;26.88;13.52;;;128.00;2252.80;;;;;;5033313;28;20048;-57
2022/12/06 00:38:40;;;;;;;28.63;13.38;;;103.20;2227.20;;;;;;5052466;28;20505;-57
2022/12/06 00:41:08;;;;;;;27.63;13.32;;;103.20;2227.20;;;;;;5052885;28;20021;-59
2022/12/06 00:43:35;;;;;;;36.97;16.30;;;103.20;2227.20;;;;;;5051510;28;20474;-57
2022/12/06 00:46:01;;;;;;;31.00;15.15;;;103.20;2201.60;;;;;;5051529;28;20043;-57
2022/12/06 00:48:27;;;;;;;37.40;16.48;;;128.00;2252.80;;;;;;5045050;28;20033;-57
2022/12/06 00:50:53;;;;;;;31.95;14.50;;;103.30;2227.20;;;;;;5053190;28;20025;-57
2022/12/06 00:53:20;;;;;;;35.42;14.73;;;103.30;2227.20;;;;;;5052510;28;20033;-56
2022/12/06 00:55:46;;;;;;;32.85;15.50;;;128.10;2252.80;;;;;;5052694;28;20535;-57
2022/12/06 00:58:12;;;;;;;36.35;17.13;;;128.10;2252.80;;;;;;5052261;28;20025;-57
2022/12/06 01:00:38;;;;;;;36.90;19.00;;;128.20;2252.80;;;;;;5052623;28;20029;-57
2022/12/06 01:03:04;;;;;;;35.95;17.60;;;128.20;2252.80;;;;;;5046821;28;20036;-57
2022/12/06 01:05:30;;;;;;;37.63;19.30;;;128.10;2252.80;;;;;;5032148;28;20045;-57
2022/12/06 01:07:56;;;;;;;39.53;20.42;;;103.30;2227.20;;;;;;5034749;28;20030;-57
2022/12/06 01:10:21;;;;;;;34.70;19.23;;;103.30;2227.20;;;;;;5036693;28;20103;-56
2022/12/06 01:12:47;;;;;;;26.90;13.95;;;128.30;2252.80;;;;;;5032407;28;20137;-57
2022/12/06 01:15:12;;;;;;;30.20;16.10;;;128.30;2252.80;;;;;;5032455;28;20017;-57
2022/12/06 01:17:38;;;;;;;28.73;15.23;;;128.40;2252.80;;;;;;5032527;28;20022;-57
2022/12/06 01:20:05;;;;;;;28.27;14.65;;;128.60;2252.80;;;;;;5046495;28;20426;-57
2022/12/06 01:22:31;;;;;;;25.38;13.50;;;128.70;2252.80;;;;;;5036583;28;20028;-57
2022/12/06 01:24:57;;;;;;;26.95;13.18;;;128.60;2252.80;;;;;;5036511;28;20025;-58
2022/12/06 01:27:23;;;;;;;29.10;13.98;;;128.50;2227.20;;;;;;5048037;28;20102;-58
2022/12/06 01:29:48;;;;;;;25.27;12.95;;;128.50;2252.80;;;;;;5044936;28;20479;-57
2022/12/06 01:32:14;;;;;;;28.40;13.23;;;128.50;2252.80;;;;;;5049882;28;20138;-57
2022/12/06 01:34:40;;;;;;;26.42;12.05;;;128.50;2252.80;;;;;;5051966;28;20020;-58
2022/12/06 01:37:06;;;;;;;26.85;12.25;;;128.50;2252.80;;;;;;5051252;28;20025;-58
2022/12/06 01:39:31;;;;;;;25.98;12.40;;;128.50;2252.80;;;;;;5051864;28;20021;-57
2022/12/06 01:41:57;;;;;;;27.42;12.30;;;128.70;2252.80;;;;;;5051718;28;20036;-57
2022/12/06 01:44:49;;;;;;;24.17;11.98;;;128.90;2252.80;;;;;;5051687;28;20052;-57
2022/12/06 01:47:37;;;;;;;24.20;11.80;;;128.90;2252.80;;;;;;5051931;28;20155;-57
2022/12/06 01:50:12;;;;;;;20.40;11.23;;;128.90;2252.80;;;;;;5048641;28;20036;-58
2022/12/06 01:53:07;;;;;;;21.45;11.45;;;128.80;1868.80;;;;;;5051598;28;20401;-59
2022/12/06 01:55:36;;;;;;;22.38;11.57;;;128.90;2048.00;;;;;;5051742;28;20033;-58
2022/12/06 01:58:26;;;;;;;23.88;11.80;;;128.90;2252.80;;;;;;5048451;28;20112;-59
2022/12/06 02:00:52;;;;;;;25.58;12.75;;;128.90;2252.80;;;;;;5032052;28;20425;-58
2022/12/06 02:03:27;;;;;;;22.40;11.23;;;128.90;2252.80;;;;;;5033972;28;20143;-58
2022/12/06 02:05:54;;;;;;;;;;;128.90;2252.80;;;;;;5032003;28;20371;-57
2022/12/06 02:08:20;;;;;;;25.10;12.43;;;153.60;2252.80;;;;;;5031942;28;19909;-58
2022/12/06 02:10:46;;;;;;;23.40;11.38;;;128.90;2252.80;;;;;;5047512;28;20108;-57
2022/12/06 02:13:12;;;;;;;22.85;11.63;;;128.90;2252.80;;;;;;5051808;28;20187;-57
2022/12/06 02:16:12;;;;;;;22.65;11.43;;;153.60;2252.80;;;;;;5051681;28;20029;-56
2022/12/06 02:18:58;;;;;;;25.45;12.70;;;153.70;2252.80;;;;;;5051611;28;20053;-57
2022/12/06 02:21:36;;;;;;;37.22;16.80;;;153.80;2252.80;;;;;;5037644;28;20025;-57
2022/12/06 02:24:19;;;;;;;28.50;13.07;;;153.80;1920.00;;;;;;5031463;28;20475;-57
2022/12/06 02:26:50;;;;;;;22.83;11.60;;;153.80;2252.80;;;;;;5033199;28;20069;-56
2022/12/06 02:29:34;;;;;;;20.67;11.27;;;153.70;2252.80;;;;;;5051321;28;20039;-58
2022/12/06 02:32:25;;;;;;;22.38;11.02;;;153.60;2252.80;;;;;;5051637;28;20025;-57
2022/12/06 02:34:54;;;;;;;23.60;11.65;;;128.90;2252.80;;;;;;5051376;28;20025;-58
2022/12/06 02:37:28;;;;;;;22.95;11.07;;;128.70;2124.80;;;;;;5051399;28;20036;-58
2022/12/06 02:39:56;;;;;;;20.42;10.07;;;128.70;2252.80;;;;;;5031493;28;20017;-57
2022/12/06 02:42:25;;;;;;;23.20;10.98;;;128.70;2252.80;;;;;;5031574;28;20448;-57
2022/12/06 02:44:59;;;;;;;24.20;12.30;;;128.60;2252.80;;;;;;5031264;28;20025;-58
2022/12/06 02:47:31;;;;;;;23.70;11.98;;;128.70;2252.80;;;;;;5031221;28;20499;-58
2022/12/06 02:50:00;;;;;;;26.27;12.18;;;128.80;2252.80;;;;;;5050528;28;20047;-58
2022/12/06 02:52:28;;;;;;;26.35;13.10;;;153.60;2252.80;;;;;;5054918;28;20040;-58
2022/12/06 02:54:57;;;;;;;28.20;13.20;;;153.60;2252.80;;;;;;5055027;28;20025;-58
2022/12/06 02:57:47;;;;;;;22.63;11.85;;;153.70;2252.80;;;;;;5054603;28;20033;-58
2022/12/06 03:00:45;;;;;;;29.25;14.52;;;153.70;2022.40;;;;;;5055053;28;20025;-58
2022/12/06 03:03:39;;;;;;;24.15;12.93;;;153.60;2252.80;;;;;;5054751;28;20029;-58
2022/12/06 03:06:44;;;;;;;25.13;12.82;;;128.80;2252.80;;;;;;5054050;28;20102;-57
2022/12/06 03:09:28;;;;;;;23.33;12.00;;;128.90;2252.80;;;;;;5035206;28;20041;-58
2022/12/06 03:12:22;;;;;;;44.60;28.02;;;153.60;2201.60;;;;;;5034391;28;20022;-58
2022/12/06 03:15:02;;;;;;;37.72;25.13;;;153.60;2252.80;;;;;;5034790;28;20506;-58
2022/12/06 03:17:38;;;;;;;27.95;17.23;;;153.70;2252.80;;;;;;5042969;28;20033;-58
2022/12/06 03:20:22;;;;;;;31.38;15.57;;;153.70;2252.80;;;;;;5054674;28;20021;-58
2022/12/06 03:22:53;;;;;;;26.65;14.63;;;153.70;2048.00;;;;;;5041574;28;20386;-57
2022/12/06 03:25:19;;;;;;;24.70;13.77;;;153.80;2252.80;;;;;;5035052;28;20033;-59
2022/12/06 03:27:47;;;;;;;27.25;13.38;;;154.00;2252.80;;;;;;5039247;28;20029;-58
2022/12/06 03:30:14;;;;;;;26.58;14.63;;;154.00;2252.80;;;;;;5054780;28;20029;-58
2022/12/06 03:32:45;;;;;;;27.67;13.48;;;154.00;2124.80;;;;;;5055574;28;20120;-58
2022/12/06 03:35:13;;;;;;;31.35;16.02;;;154.00;2252.80;;;;;;5054392;28;20028;-57
2022/12/06 03:37:43;;;;;;;31.48;15.70;;;154.00;2252.80;;;;;;5054582;28;20073;-58
2022/12/06 03:40:21;;;;;;;30.40;15.98;;;154.00;2252.80;;;;;;5034635;28;20021;-59
2022/12/06 03:42:47;;;;;;;38.78;19.10;;;154.00;2252.80;;;;;;5033966;28;20026;-58
2022/12/06 03:45:13;;;;;;;35.20;16.27;;;154.10;2252.80;;;;;;5033912;28;20044;-58
2022/12/06 03:48:02;;;;;;;34.88;16.42;;;154.00;2252.80;;;;;;5034015;28;20442;-57
2022/12/06 03:50:39;;;;;;;30.98;15.40;;;153.90;2252.80;;;;;;5048605;28;20025;-58
2022/12/06 03:53:05;;;;;;;34.97;15.68;;;154.00;2252.80;;;;;;5053886;28;20043;-57
2022/12/06 03:55:30;;;;;;;40.63;19.38;;;154.10;2252.80;;;;;;5054069;28;20067;-58
2022/12/06 03:57:56;;;;;;;40.50;20.00;;;154.00;2252.80;;;;;;5051791;28;20543;-58
2022/12/06 04:00:22;;;;;;;39.58;19.15;;;154.00;2252.80;;;;;;5065585;28;20021;-58
2022/12/06 04:02:47;;;;;;;34.92;17.65;;;153.90;2252.80;;;;;;5053828;28;20104;-58
2022/12/06 04:05:13;;;;;;;32.65;17.33;;;154.00;2252.80;;;;;;5054341;28;20095;-58
2022/12/06 04:07:39;;;;;;;37.50;17.17;;;154.00;2252.80;;;;;;5062956;28;20546;-57
2022/12/06 04:10:05;;;;;;;36.70;17.13;;;154.00;2252.80;;;;;;5053886;28;20021;-57
2022/12/06 04:15:38;;;;;;;31.02;15.40;;;154.30;2252.80;;;;;;5051076;28;20399;-57
2022/12/06 04:18:15;;;;;;;29.85;14.15;;;154.30;2252.80;;;;;;5050962;28;20025;-57
2022/12/06 04:23:33;;;;;;;26.65;13.38;;;154.30;2252.80;;;;;;5051376;28;20087;-57
2022/12/06 04:25:59;;;;;;;24.25;13.98;;;154.30;2252.80;;;;;;5050858;28;20129;-57
2022/12/06 04:39:23;;;;;;;26.13;13.77;;;154.00;2048.00;;;;;;5050437;28;20895;-57
2022/12/06 04:44:33;;;;;;;32.83;16.52;;;154.00;2252.80;;;;;;5051133;28;20101;-57
2022/12/06 04:46:59;;;;;;;27.25;14.85;;;154.00;2252.80;;;;;;5039036;28;20044;-56
2022/12/06 04:49:25;;;;;;;26.08;14.25;;;154.00;1920.00;;;;;;5033207;28;20120;-60
2022/12/06 04:51:51;;;;;;;28.58;16.40;;;154.00;2252.80;;;;;;5040928;28;20029;-56
2022/12/06 04:54:18;;;;;;;26.65;16.05;;;154.00;2252.80;;;;;;5032956;28;20029;-57
2022/12/06 04:56:44;;;;;;;25.20;13.93;;;154.00;2252.80;;;;;;5036184;28;20024;-57
2022/12/06 04:59:09;;;;;;;25.45;13.80;;;153.80;2252.80;;;;;;5037596;28;20029;-57
2022/12/06 05:01:35;;;;;;;25.25;13.55;;;153.70;2252.80;;;;;;5032638;28;20029;-57
2022/12/06 05:04:01;;;;;;;24.25;13.20;;;153.60;2252.80;;;;;;5032498;28;20032;-57
2022/12/06 05:06:26;;;;;;;24.23;12.77;;;153.60;2252.80;;;;;;5032617;28;20119;-58
2022/12/06 05:08:52;;;;;;;28.00;14.50;;;153.80;2252.80;;;;;;5046187;28;20075;-56
2022/12/06 05:11:18;;;;;;;26.10;15.40;;;153.70;2252.80;;;;;;5054594;28;20119;-56
2022/12/06 05:13:43;;;;;;;30.83;16.67;;;153.80;2252.80;;;;;;5070557;28;20024;-56
2022/12/06 05:16:09;;;;;;;37.75;19.92;;;153.90;2252.80;;;;;;5050889;28;20416;-57
2022/12/06 05:18:35;;;;;;;31.73;17.83;;;153.80;2252.80;;;;;;5037516;28;20020;-57
2022/12/06 05:21:06;;;;;;;30.10;16.80;;;153.90;2252.80;;;;;;5052211;28;20021;-56
2022/12/06 05:23:33;;;;;;;37.15;18.27;;;153.90;2252.80;;;;;;5052588;28;20020;-56
2022/12/06 05:26:00;;;;;;;36.65;18.75;;;153.80;2252.80;;;;;;5052144;28;20089;-56
2022/12/06 05:28:26;;;;;;;33.13;18.92;;;153.80;2252.80;;;;;;5052176;28;20108;-56
2022/12/06 05:30:52;;;;;;;48.58;26.90;;;153.90;2252.80;;;;;;5051460;28;20029;-57
2022/12/06 05:33:18;;;;;;;44.13;22.70;;;153.80;2252.80;;;;;;5058046;28;20032;-57
2022/12/06 05:35:43;;;;;;;40.72;22.00;;;153.80;2252.80;;;;;;5072134;28;20492;-56
2022/12/06 05:38:09;;;;;;;46.22;24.77;;;153.70;2252.80;;;;;;5057095;28;20040;-57
2022/12/06 05:40:35;;;;;;;42.13;22.85;;;153.80;2252.80;;;;;;5051566;28;20071;-58
2022/12/06 05:43:00;;;;;;;40.58;21.88;;;153.90;2252.80;;;;;;5050399;28;20056;-56
2022/12/06 05:45:26;;;;;;;36.03;20.08;;;179.20;2252.80;;;;;;5054479;28;20024;-57
2022/12/06 05:47:52;;;;;;;39.33;20.30;;;154.00;2252.80;;;;;;5057960;28;20033;-56
2022/12/06 05:50:17;;;;;;;45.47;22.52;;;154.10;2252.80;;;;;;5062585;28;20162;-57
2022/12/06 05:52:43;;;;;;;55.50;24.63;;;154.10;2252.80;;;;;;5050460;28;20071;-57
2022/12/06 05:55:09;;;;;;;62.97;25.67;;;154.00;2252.80;;;;;;5042250;28;20183;-57
2022/12/06 05:57:34;;;;;;;58.83;24.25;;;154.10;2252.80;;;;;;5051231;28;20033;-57
2022/12/06 06:00:00;;;;;;;43.42;20.45;;;154.20;2252.80;;;;;;5052210;28;20040;-57
2022/12/06 06:02:25;;;;;;;32.20;17.17;;;154.30;2124.80;;;;;;5031704;28;20040;-57
2022/12/06 06:04:52;;;;;;;31.48;18.23;;;154.30;2252.80;;;;;;5033692;28;20026;-57
2022/12/06 06:07:17;;;;;;;35.20;19.95;;;154.30;2252.80;;;;;;5032680;28;20033;-56
2022/12/06 06:09:43;;;;;;;35.45;19.15;;;154.40;1971.20;;;;;;5043983;28;20402;-56
2022/12/06 06:12:09;;;;;;;31.08;16.15;;;154.50;2252.80;;;;;;5050969;28;20520;-57
2022/12/06 06:14:34;;;;;;;26.20;14.95;;;154.50;2252.80;;;;;;5051412;28;20052;-56
2022/12/06 06:17:00;;;;;;;29.63;14.65;;;179.20;2252.80;;;;;;5051511;28;20094;-57
2022/12/06 06:19:26;;;;;;;50.17;20.45;;;179.20;2201.60;;;;;;5051274;28;20082;-57
2022/12/06 06:21:52;;;;;;;46.00;19.55;;;154.50;2252.80;;;;;;5046934;28;20116;-56
2022/12/06 06:24:17;;;;;;;42.50;21.83;;;154.50;2252.80;;;;;;5036008;28;20017;-56
2022/12/06 06:26:43;;;;;;;38.08;19.58;;;179.20;2073.60;;;;;;5057430;28;20418;-57
2022/12/06 06:29:09;;;;;;;33.03;18.42;;;179.30;2252.80;;;;;;5060838;28;20421;-57
2022/12/06 06:31:34;;;;;;;29.95;17.48;;;179.40;2252.80;;;;;;5054989;28;20129;-56
2022/12/06 06:34:00;;;;;;;27.77;16.23;;;179.30;2252.80;;;;;;5054642;28;20029;-58
2022/12/06 06:36:26;;;;;;;44.38;21.75;;;179.50;2252.80;;;;;;5055063;28;20029;-56
2022/12/06 06:38:51;;;;;;;48.40;23.70;;;179.40;1945.60;;;;;;5054935;28;20035;-58
2022/12/06 06:41:17;;;;;;;53.25;25.45;;;179.40;2252.80;;;;;;5055105;28;20917;-57
2022/12/06 06:43:42;;;;;;;59.25;27.55;;;179.50;2252.80;;;;;;5055068;28;20409;-57
2022/12/06 06:46:09;;;;;;;256.58;93.35;;;179.60;2252.80;;;;;;5055133;28;20040;-56
2022/12/06 06:48:37;;;;;;;109.82;46.53;;;179.80;2252.80;;;;;;5054911;28;20079;-58
2022/12/06 06:51:06;;;;;;;125.30;60.63;;;179.80;2252.80;;;;;;5055094;28;20025;-54
2022/12/06 06:53:31;;;;;;;65.60;32.90;;;179.80;2252.80;;;;;;5061559;28;20498;-57
2022/12/06 06:55:57;;;;;;;50.08;29.98;;;179.90;2252.80;;;;;;5044408;28;20037;-57
2022/12/06 06:58:24;;;;;;;43.70;24.08;;;179.90;2252.80;;;;;;5061505;28;20040;-57
2022/12/06 07:00:53;;;;;;;37.60;22.02;;;179.90;2252.80;;;;;;5053817;28;20055;-57
2022/12/06 07:03:20;;;;;;;40.95;23.27;;;180.10;2252.80;;;;;;5059315;28;20120;-56
2022/12/06 07:05:54;;;;;;;44.38;27.23;;;180.10;2252.80;;;;;;5054846;28;20041;-55
2022/12/06 07:08:20;;;;;;;54.80;31.43;;;204.80;2252.80;;;;;;5055424;28;20420;-57
2022/12/06 07:10:47;;;;;;;59.47;35.72;;;204.90;2252.80;;;;;;5047738;28;20026;-57
2022/12/06 07:13:17;;;;;;;144.15;68.43;;;205.00;2252.80;;;;;;5041649;28;20027;-57
2022/12/06 07:15:44;;;;;;;92.18;53.10;;;205.20;2252.80;;;;;;5054344;28;20036;-57
2022/12/06 07:18:09;;;;;;;101.85;55.08;;;205.20;2252.80;;;;;;5037666;28;20116;-57
2022/12/06 07:20:35;;;;;;;108.95;55.92;;;205.20;2252.80;;;;;;5052650;28;20121;-56
2022/12/06 07:23:01;;;;;;;117.03;61.60;;;204.80;2252.80;;;;;;5054871;28;20451;-58
2022/12/06 07:25:27;;;;;;;92.93;52.42;;;179.90;2252.80;;;;;;5054671;28;20107;-57
2022/12/06 07:27:52;;;;;;;69.07;39.03;;;179.60;2252.80;;;;;;5054186;28;20427;-57
2022/12/06 07:30:18;;;;;;;69.07;40.58;;;179.70;2252.80;;;;;;5038046;28;20025;-57
2022/12/06 07:32:44;;;;;;;51.38;31.33;;;179.60;2252.80;;;;;;5051829;28;20036;-57
2022/12/06 07:35:10;;;;;;;48.15;28.83;;;179.60;2252.80;;;;;;5053543;28;20374;-57
2022/12/06 07:37:35;;;;;;;56.80;34.72;;;179.40;2252.80;;;;;;5053874;28;20032;-57
2022/12/06 07:40:02;;;;;;;44.60;26.33;;;179.20;2252.80;;;;;;5054129;28;20033;-57
2022/12/06 07:45:13;;;;;;;48.38;27.42;;;179.40;2227.20;;;;;;5054164;28;20032;-57
2022/12/06 07:47:41;;;;;;;51.85;30.00;;;179.30;2252.80;;;;;;5053908;28;20128;-57
2022/12/06 07:50:10;;;;;;;48.63;28.25;;;179.20;2252.80;;;;;;5052005;28;20029;-57
2022/12/06 07:52:37;;;;;;;42.33;23.77;;;154.40;2252.80;;;;;;5054388;28;20067;-57
2022/12/06 07:55:04;;;;;;;38.88;21.13;;;154.40;2252.80;;;;;;5054072;28;20028;-57
2022/12/06 07:57:29;;;;;;;38.85;21.77;;;154.40;2252.80;;;;;;5053744;28;20028;-58
2022/12/06 07:59:55;;;;;;;49.00;25.45;;;179.20;2252.80;;;;;;5053065;28;20032;-57
2022/12/06 08:02:23;;;;;;;51.83;30.60;;;179.50;2252.80;;;;;;5054029;28;20031;-58
2022/12/06 08:04:48;;;;;;;58.60;34.88;;;179.70;2252.80;;;;;;5033954;28;20482;-57
2022/12/06 08:07:14;;;;;;;56.50;31.27;;;180.00;1945.60;;;;;;5048558;28;20037;-57
2022/12/06 08:09:40;;;;;;;142.90;57.17;;;204.80;2252.80;;;;;;5053500;28;20059;-58
2022/12/06 08:12:07;;;;;;;165.85;60.20;;;205.00;2252.80;;;;;;5053618;28;20418;-56
2022/12/06 08:14:33;;;;;;;114.63;47.70;;;205.00;2252.80;;;;;;5053497;28;20067;-58
2022/12/06 08:16:59;;;;;;;127.72;56.60;;;205.00;2252.80;;;;;;5053615;28;20031;-57
2022/12/06 08:19:25;;;;;;;66.68;33.45;;;205.10;2252.80;;;;;;5053381;28;20017;-57
2022/12/06 08:21:51;;;;;;;72.07;34.20;;;205.10;2252.80;;;;;;5053546;28;20029;-57
2022/12/06 08:24:17;;;;;;;60.38;35.25;;;205.10;2252.80;;;;;;5050232;28;20021;-57
2022/12/06 08:26:42;;;;;;;44.15;25.35;;;205.00;2252.80;;;;;;5036082;28;20047;-57
2022/12/06 08:29:08;;;;;;;38.33;22.65;;;205.00;2252.80;;;;;;5053255;28;20025;-57
2022/12/06 08:31:34;;;;;;;37.40;22.98;;;;;;;;;;5033932;28;20029;-57
2022/12/06 08:34:01;;;;;;;37.17;21.58;;;205.40;2252.80;;;;;;5035293;28;20527;-55
2022/12/06 08:36:27;;;;;;;42.30;23.30;;;205.30;2252.80;;;;;;5033680;28;20804;-57
2022/12/06 08:38:54;;;;;;;37.05;23.63;;;205.40;2252.80;;;;;;5048736;28;20021;-57
2022/12/06 08:44:08;;;;;;;34.13;21.65;;;205.60;2252.80;;;;;;5033377;28;20105;-56
2022/12/06 08:46:34;;;;;;;35.80;21.63;;;205.70;2252.80;;;;;;5039606;28;20035;-56
2022/12/06 08:49:00;;;;;;;43.30;24.00;;;;;;;;;;5052425;28;20364;-55
2022/12/06 08:51:27;;;;;;;54.88;31.60;;;230.50;2252.80;;;;;;5030590;28;20490;-53
2022/12/06 08:53:54;;;;;;;47.33;27.45;;;230.50;2252.80;;;;;;5033024;28;20049;-57
2022/12/06 08:56:20;;;;;;;72.00;37.55;;;;;;;;;;5032816;28;20057;-57
2022/12/06 08:58:46;;;;;;;67.63;35.78;;;230.50;2252.80;;;;;;5040121;28;20022;-57
2022/12/06 09:01:17;;;;;;;66.18;33.90;;;230.40;2252.80;;;;;;5056617;28;20388;-58
2022/12/06 09:03:43;;;;;;;105.93;59.80;;;230.60;2252.80;;;;;;5052506;28;20021;-57
2022/12/06 09:06:10;;;;;;;104.50;54.83;;;230.50;2252.80;;;;;;5054814;28;20041;-56
2022/12/06 09:08:37;;;;;;;83.20;47.30;;;205.70;2252.80;;;;;;5059626;28;20032;-56
2022/12/06 09:11:04;;;;;;;99.18;55.08;;;205.60;2252.80;;;;;;5054034;28;20025;-55
2022/12/06 09:13:30;;;;;;;162.85;81.57;;;205.50;2252.80;;;;;;5051999;28;20052;-54
2022/12/06 09:15:56;;;;;;;90.65;48.40;;;205.50;2252.80;;;;;;5052710;28;20053;-56
2022/12/06 09:18:22;;;;;;;82.60;44.30;;;205.40;2252.80;;;;;;5052050;28;20112;-57
2022/12/06 09:20:47;;;;;;;87.75;46.83;;;205.50;2252.80;;;;;;5052440;28;20474;-57
2022/12/06 09:23:13;;;;;;;77.50;41.78;;;205.60;2252.80;;;;;;5052078;28;20100;-57
2022/12/06 09:25:42;;;;;;;79.97;43.78;;;205.70;2252.80;;;;;;5052221;28;20025;-57
2022/12/06 09:28:08;;;;;;;83.40;46.55;;;205.70;2252.80;;;;;;5052064;28;20021;-57
2022/12/06 09:30:33;;;;;;;72.95;42.88;;;205.70;2252.80;;;;;;5063276;28;20032;-57
2022/12/06 09:32:59;;;;;;;75.13;42.40;;;205.70;2252.80;;;;;;5052162;28;20028;-57
2022/12/06 09:35:25;;;;;;;69.90;39.83;;;205.60;2252.80;;;;;;5052031;28;20155;-57
2022/12/06 09:37:50;;;;;;;68.25;37.25;;;205.70;2252.80;;;;;;5050266;28;20098;-57
2022/12/06 09:40:27;;;;;;;74.57;42.25;;;205.70;2252.80;;;;;;5063414;28;20479;-57
2022/12/06 09:42:56;;;;;;;66.57;37.28;;;230.40;2252.80;;;;;;5054931;28;20070;-56
2022/12/06 09:45:29;;;;;;;53.97;31.30;;;230.40;2252.80;;;;;;5039825;28;20029;-56
2022/12/06 09:48:31;;;;;;;57.47;31.45;;;205.70;2252.80;;;;;;5050548;28;20040;-57
2022/12/06 09:51:21;;;;;;;56.00;31.90;;;205.70;2252.80;;;;;;5046096;28;20095;-57
2022/12/06 09:53:50;;;;;;;48.97;27.92;;;230.40;2252.80;;;;;;5034299;28;20025;-55
2022/12/06 09:56:27;;;;;;;61.63;36.35;;;230.50;2252.80;;;;;;5039299;28;20072;-57
2022/12/06 09:58:53;;;;;;;63.03;35.92;;;230.50;2252.80;;;;;;5038378;28;20099;-57
2022/12/06 10:01:25;;;;;;;75.28;42.60;;;230.50;2252.80;;;;;;5053550;28;20108;-57
2022/12/06 10:03:50;;;;;;;73.35;40.95;;;230.50;2252.80;;;;;;5051313;28;20029;-56
2022/12/06 10:06:18;;;;;;;77.30;43.33;;;;;;;;;;5052729;28;20139;-57
2022/12/06 10:08:59;;;;;;;61.70;37.38;;;230.80;2252.80;;;;;;5050581;28;20509;-56
2022/12/06 10:11:44;;;;;;;60.97;38.63;;;230.90;2252.80;;;;;;5050343;28;20064;-57
2022/12/06 10:14:31;;;;;;;61.15;36.60;;;230.90;2252.80;;;;;;5038954;28;20064;-57
2022/12/06 10:17:02;;;;;;;55.13;33.72;;;230.90;2252.80;;;;;;5030414;28;20029;-56
2022/12/06 10:19:58;;;;;;;50.30;31.90;;;231.10;2252.80;;;;;;5052220;28;20108;-57
2022/12/06 10:22:33;;;;;;;68.22;34.25;;;256.00;2252.80;;;;;;5050583;28;20033;-56
2022/12/06 10:25:09;;;;;;;68.32;35.95;;;231.10;2252.80;;;;;;5052282;28;20032;-57
2022/12/06 10:27:52;;;;;;;92.18;41.58;;;231.10;2252.80;;;;;;5054475;28;20119;-56
2022/12/06 10:30:18;;;;;;;117.10;51.25;;;231.10;2252.80;;;;;;5054088;28;20028;-56
2022/12/06 10:33:05;;;;;;;75.38;40.13;;;231.10;2252.80;;;;;;5050487;28;20100;-57
2022/12/06 10:35:41;;;;;;;74.45;37.90;;;231.20;2252.80;;;;;;5050173;28;20064;-58
2022/12/06 10:38:22;;;;;;;48.15;29.75;;;231.30;2252.80;;;;;;5050608;28;20103;-56
2022/12/06 10:41:00;;;;;;;52.42;30.15;;;256.20;2252.80;;;;;;5067062;28;20096;-57
2022/12/06 10:43:37;;;;;;;54.83;30.60;;;256.40;2252.80;;;;;;5060814;28;20087;-56
2022/12/06 10:49:34;;;;;;;49.25;30.17;;;281.60;2278.40;;;;;;5049496;28;20155;-56
2022/12/06 10:52:16;;;;;;;47.63;27.60;;;281.90;2278.40;;;;;;5048369;28;20071;-58
2022/12/06 10:55:05;;;;;;;47.60;29.35;;;282.40;2278.40;;;;;;5048526;28;20771;-56
2022/12/06 10:57:59;;;;;;;48.63;30.33;;;282.10;2278.40;;;;;;5024383;28;20486;-57
2022/12/06 11:00:27;;;;;;;46.20;26.52;;;282.10;2278.40;;;;;;5028518;28;20149;-56
2022/12/06 11:02:59;;;;;;;42.65;26.98;;;282.10;2278.40;;;;;;5027876;28;20033;-56
2022/12/06 11:05:42;;;;;;;38.42;24.33;;;282.10;2278.40;;;;;;5027049;28;20419;-57
2022/12/06 11:08:25;;;;;;;38.40;24.50;;;282.00;2278.40;;;;;;5007969;28;20446;-54
2022/12/06 11:10:53;;;;;;;41.30;24.27;;;282.00;2278.40;;;;;;5011478;28;20034;-56
2022/12/06 11:13:41;;;;;;;91.03;42.22;;;281.90;2278.40;;;;;;5026510;28;20387;-56
2022/12/06 11:16:28;;;;;;;47.03;26.90;;;282.00;2278.40;;;;;;5040341;28;20094;-56
2022/12/06 11:19:24;;;;;;;47.55;26.38;;;282.00;2278.40;;;;;;5017580;28;20018;-55
2022/12/06 11:22:14;;;;;;;37.95;23.40;;;282.00;2278.40;;;;;;5011425;28;20042;-54
2022/12/06 11:24:49;;;;;;;33.00;20.75;;;281.90;2278.40;;;;;;5029764;28;20022;-53
2022/12/06 11:27:40;;;;;;;27.90;17.55;;;281.90;2278.40;;;;;;5031149;28;20046;-54
2022/12/06 11:30:14;;;;;;;28.65;18.83;;;282.00;2278.40;;;;;;5031038;28;20084;-57
2022/12/06 11:32:40;;;;;;;42.50;23.50;;;282.20;2278.40;;;;;;5030218;28;20095;-55
2022/12/06 11:35:13;;;;;;;31.95;19.83;;;282.20;2278.40;;;;;;5039453;28;20390;-55
2022/12/06 11:37:39;;;;;;;27.83;18.10;;;282.20;2278.40;;;;;;5053462;28;20037;-56
2022/12/06 11:40:40;;;;;;;31.17;20.50;;;282.00;2278.40;;;;;;5052794;28;20028;-56
2022/12/06 11:43:12;;;;;;;34.28;21.20;;;282.10;2278.40;;;;;;5023807;28;20093;-55
2022/12/06 11:45:40;;;;;;;38.22;21.95;;;282.10;2278.40;;;;;;5011058;28;20121;-56
2022/12/06 11:48:17;;;;;;;49.17;27.23;;;282.20;2278.40;;;;;;5029629;28;20491;-56
2022/12/06 11:50:45;;;;;;;35.45;21.05;;;282.30;2278.40;;;;;;5029262;28;20057;-56
2022/12/06 11:53:32;;;;;;;29.83;19.70;;;282.30;2278.40;;;;;;5026922;28;20530;-56
2022/12/06 11:56:07;;;;;;;30.17;18.98;;;282.20;2278.40;;;;;;5030130;28;20498;-57
2022/12/06 11:58:40;;;;;;;38.38;21.80;;;282.10;2278.40;;;;;;5027544;28;20083;-57
2022/12/06 12:01:13;;;;;;;42.03;25.67;;;282.10;2278.40;;;;;;5039417;28;20134;-55
2022/12/06 12:03:42;;;;;;;63.00;33.67;;;282.20;2278.40;;;;;;5050791;28;20781;-53
2022/12/06 12:06:14;;;;;;;66.82;35.85;;;282.40;2278.40;;;;;;5022409;28;20041;-56
2022/12/06 12:08:49;;;;;;;51.83;29.45;;;282.30;2278.40;;;;;;5010756;28;20573;-55
2022/12/06 12:11:21;;;;;;;54.92;33.35;;;282.20;2278.40;;;;;;5010844;28;20083;-55
2022/12/06 12:13:52;;;;;;;37.65;24.42;;;282.30;2278.40;;;;;;5037732;28;20052;-56
2022/12/06 12:16:25;;;;;;;34.72;22.58;;;282.10;2278.40;;;;;;5021167;28;20029;-56
2022/12/06 12:19:03;;;;;;;35.63;22.65;;;282.10;2278.40;;;;;;5019687;28;20044;-55
2022/12/06 12:21:40;;;;;;;52.45;34.00;;;282.00;2278.40;;;;;;5038071;28;20493;-55
2022/12/06 12:24:40;;;;;;;31.65;20.85;;;282.00;2278.40;;;;;;5049994;28;20044;-57
2022/12/06 12:27:29;;;;;;;39.20;24.75;;;281.90;2278.40;;;;;;5072267;28;20037;-55
2022/12/06 12:30:21;;;;;;;42.67;26.55;;;281.70;2278.40;;;;;;5060421;28;20110;-56
2022/12/06 12:32:49;;;;;;;35.53;22.60;;;281.70;2278.40;;;;;;5051943;28;20033;-57
2022/12/06 12:35:20;;;;;;;40.90;25.55;;;281.60;2278.40;;;;;;5040260;28;20135;-56
2022/12/06 12:37:50;;;;;;;44.60;27.27;;;281.60;2278.40;;;;;;5052088;28;20049;-58
2022/12/06 12:40:29;;;;;;;46.00;28.67;;;281.70;2278.40;;;;;;5035534;28;20033;-57
2022/12/06 12:43:07;;;;;;;55.78;33.00;;;281.80;2278.40;;;;;;5031329;28;20022;-59
2022/12/06 12:45:33;;;;;;;64.03;35.47;;;281.80;2278.40;;;;;;5039158;28;20041;-57
2022/12/06 12:48:02;;;;;;;73.78;37.75;;;282.00;2278.40;;;;;;5052612;28;20048;-57
2022/12/06 12:50:30;;;;;;;66.22;34.60;;;282.00;2278.40;;;;;;5053173;28;20041;-58